Time;durP1;ratioP1;P1;durP2;ratioP2;P2;SDS_P1;SDS_P2;PMS_P1;PMS_P2;Temp;Humidity;BMP_temperature;BMP_pressure;BME280_temperature;BME280_humidity;BME280_pressure;Samples;Min_cycle;Max_cycle;Signal;HPM_P1;HPM_P2
2020/12/14 00:00:14;;;;;;;97.40;31.60;;;5.40;99.90;;;;;;5037180;28;20464;-54
2020/12/14 00:02:40;;;;;;;92.40;31.67;;;5.50;99.90;;;;;;5036731;28;20521;-57
2020/12/14 00:05:07;;;;;;;83.60;30.07;;;5.50;99.90;;;;;;5037020;28;20549;-58
2020/12/14 00:07:33;;;;;;;67.13;29.63;;;5.60;99.90;;;;;;5037668;28;20529;-56
2020/12/14 00:10:01;;;;;;;85.67;29.60;;;5.60;99.90;;;;;;5037669;28;20766;-59
2020/12/14 00:12:29;;;;;;;78.30;30.40;;;5.60;99.90;;;;;;5037194;28;20529;-58
2020/12/14 00:14:55;;;;;;;91.63;31.57;;;5.60;99.90;;;;;;5037753;28;20509;-57
2020/12/14 00:17:21;;;;;;;92.30;30.50;;;5.70;99.90;;;;;;5036384;28;20456;-56
2020/12/14 00:19:48;;;;;;;79.97;30.90;;;5.60;99.90;;;;;;5036476;28;20456;-57
2020/12/14 00:22:14;;;;;;;80.03;30.97;;;5.70;99.90;;;;;;5019024;28;506496;-55
2020/12/14 00:24:40;;;;;;;87.67;31.37;;;5.70;99.90;;;;;;5037687;28;20279;-57
2020/12/14 00:27:06;;;;;;;104.10;32.90;;;5.80;99.90;;;;;;5037558;28;20467;-58
2020/12/14 00:29:33;;;;;;;87.37;32.93;;;5.90;99.90;;;;;;5036449;28;20529;-57
2020/12/14 00:32:00;;;;;;;111.80;34.63;;;5.90;99.90;;;;;;5037228;28;20727;-58
2020/12/14 00:34:27;;;;;;;92.00;29.57;;;5.80;99.90;;;;;;5037256;28;20452;-58
2020/12/14 00:36:53;;;;;;;74.97;29.97;;;5.80;99.90;;;;;;5038596;28;20510;-58
2020/12/14 00:39:19;;;;;;;102.20;33.17;;;5.80;99.90;;;;;;5038018;28;20452;-59
2020/12/14 00:41:45;;;;;;;78.93;31.80;;;5.80;99.90;;;;;;5040510;28;20471;-57
2020/12/14 00:44:11;;;;;;;80.80;29.07;;;5.90;99.90;;;;;;5038199;28;20480;-57
2020/12/14 00:46:39;;;;;;;87.47;31.10;;;5.90;99.90;;;;;;5043847;28;20471;-59
2020/12/14 00:49:05;;;;;;;89.80;32.77;;;5.90;99.90;;;;;;5043997;28;20460;-58
2020/12/14 00:51:31;;;;;;;92.13;32.03;;;5.90;99.90;;;;;;5044902;28;20452;-76
2020/12/14 00:53:58;;;;;;;101.80;30.77;;;5.90;99.90;;;;;;5037696;28;20456;-58
2020/12/14 00:56:24;;;;;;;81.63;30.93;;;6.00;99.90;;;;;;5037315;28;20452;-75
2020/12/14 00:58:50;;;;;;;80.90;30.20;;;6.00;99.90;;;;;;5036765;28;20526;-74
2020/12/14 01:01:18;;;;;;;85.17;29.20;;;6.00;99.90;;;;;;5036862;28;20506;-74
2020/12/14 01:03:45;;;;;;;90.83;32.87;;;6.00;99.90;;;;;;5036450;28;20557;-75
2020/12/14 01:06:12;;;;;;;85.97;32.20;;;6.00;99.90;;;;;;5037260;28;20456;-74
2020/12/14 01:08:41;;;;;;;90.87;30.40;;;6.00;99.90;;;;;;5036858;28;20526;-74
2020/12/14 01:11:07;;;;;;;90.70;31.83;;;6.00;99.90;;;;;;5036842;28;20456;-73
2020/12/14 01:13:33;;;;;;;84.30;32.90;;;6.10;99.90;;;;;;5037499;28;20517;-74
2020/12/14 01:15:59;;;;;;;79.23;31.60;;;6.10;99.90;;;;;;5036300;28;20922;-73
2020/12/14 01:18:25;;;;;;;82.20;30.10;;;6.10;99.90;;;;;;5036665;28;20464;-74
2020/12/14 01:20:52;;;;;;;89.80;30.77;;;6.10;99.90;;;;;;5036982;28;20455;-74
2020/12/14 01:23:19;;;;;;;88.13;30.67;;;6.10;99.90;;;;;;5037122;28;20464;-74
2020/12/14 01:25:45;;;;;;;86.63;32.17;;;6.00;99.90;;;;;;5037811;28;20456;-75
2020/12/14 01:28:11;;;;;;;90.13;29.90;;;6.10;99.90;;;;;;5036710;28;20460;-75
2020/12/14 01:30:37;;;;;;;82.37;30.87;;;6.00;99.90;;;;;;5036918;28;20456;-75
2020/12/14 01:33:03;;;;;;;71.67;31.43;;;6.10;99.90;;;;;;5036503;28;20460;-75
2020/12/14 01:35:29;;;;;;;79.77;32.20;;;6.10;99.90;;;;;;5036797;28;20484;-75
2020/12/14 01:37:56;;;;;;;94.90;31.27;;;6.10;99.90;;;;;;5036607;28;20456;-75
2020/12/14 01:40:23;;;;;;;80.83;31.70;;;6.10;99.90;;;;;;5036122;28;20780;-74
2020/12/14 01:42:49;;;;;;;79.87;29.27;;;6.20;99.90;;;;;;5035990;28;20456;-75
2020/12/14 01:45:15;;;;;;;76.50;29.13;;;6.20;99.90;;;;;;5036144;28;20527;-75
2020/12/14 01:47:43;;;;;;;86.60;31.03;;;6.20;99.90;;;;;;5036029;28;20452;-69
2020/12/14 01:50:11;;;;;;;70.80;30.70;;;6.20;99.90;;;;;;5035912;28;20968;-68
2020/12/14 01:52:39;;;;;;;80.73;31.30;;;6.20;99.90;;;;;;5035929;28;20456;-69
2020/12/14 01:55:08;;;;;;;75.50;31.13;;;6.20;99.90;;;;;;5036157;28;20448;-69
2020/12/14 01:57:37;;;;;;;75.80;29.07;;;6.20;99.90;;;;;;5036151;28;20769;-69
2020/12/14 02:00:05;;;;;;;83.03;31.57;;;6.20;99.90;;;;;;5035504;28;20498;-70
2020/12/14 02:02:31;;;;;;;91.03;29.63;;;6.20;99.90;;;;;;5035694;28;20510;-70
2020/12/14 02:04:57;;;;;;;67.57;27.77;;;6.30;99.90;;;;;;5035801;28;20676;-69
2020/12/14 02:07:24;;;;;;;67.03;28.87;;;6.30;99.90;;;;;;5035760;28;20530;-53
2020/12/14 02:09:53;;;;;;;64.17;26.93;;;6.20;99.90;;;;;;5036113;28;20471;-53
2020/12/14 02:12:21;;;;;;;67.60;28.47;;;6.20;99.90;;;;;;5035831;28;20769;-52
2020/12/14 02:14:49;;;;;;;69.40;28.00;;;6.20;99.90;;;;;;5036110;28;20458;-52
2020/12/14 02:17:18;;;;;;;72.33;29.20;;;6.10;99.90;;;;;;5035777;28;20456;-52
2020/12/14 02:19:44;;;;;;;92.67;28.93;;;6.10;99.90;;;;;;5036007;28;20822;-56
2020/12/14 02:22:11;;;;;;;63.43;26.90;;;6.00;99.90;;;;;;5038108;28;21046;-54
2020/12/14 02:24:38;;;;;;;76.90;29.30;;;6.00;99.90;;;;;;5041107;28;20507;-56
2020/12/14 02:27:04;;;;;;;58.10;24.80;;;6.00;99.90;;;;;;5037878;28;20533;-54
2020/12/14 02:29:30;;;;;;;57.77;26.27;;;6.00;99.90;;;;;;5038070;28;20452;-65
2020/12/14 02:31:56;;;;;;;54.87;25.33;;;5.90;99.90;;;;;;5036255;28;20529;-56
2020/12/14 02:34:22;;;;;;;61.23;26.13;;;5.90;99.90;;;;;;5037208;28;20456;-70
2020/12/14 02:36:48;;;;;;;56.70;25.07;;;5.90;99.90;;;;;;5035118;28;20440;-69
2020/12/14 02:39:14;;;;;;;56.10;25.83;;;5.90;99.90;;;;;;5035370;28;20489;-69
2020/12/14 02:41:41;;;;;;;64.90;25.87;;;6.00;99.90;;;;;;5035073;28;20979;-69
2020/12/14 02:44:07;;;;;;;72.17;27.57;;;6.00;99.90;;;;;;5034957;28;20834;-68
2020/12/14 02:46:33;;;;;;;60.70;25.90;;;6.10;99.90;;;;;;5035132;28;20454;-68
2020/12/14 02:48:59;;;;;;;63.53;25.23;;;6.10;99.90;;;;;;5035469;28;20839;-69
2020/12/14 02:51:26;;;;;;;64.20;26.93;;;6.10;99.90;;;;;;5034427;28;20452;-69
2020/12/14 02:53:52;;;;;;;65.63;27.57;;;6.00;99.90;;;;;;5034782;28;20506;-70
2020/12/14 02:56:19;;;;;;;64.43;25.43;;;6.00;99.90;;;;;;5035195;28;20517;-69
2020/12/14 02:58:46;;;;;;;57.27;21.97;;;6.00;99.90;;;;;;5034390;28;21020;-70
2020/12/14 03:01:12;;;;;;;68.57;24.50;;;5.80;99.90;;;;;;5035007;28;20456;-70
2020/12/14 03:03:38;;;;;;;49.13;22.80;;;5.70;99.90;;;;;;5034591;28;20575;-70
2020/12/14 03:06:04;;;;;;;54.63;21.83;;;5.70;99.90;;;;;;5034503;28;20508;-69
2020/12/14 03:08:30;;;;;;;60.77;22.70;;;5.70;99.90;;;;;;5034477;28;20456;-68
2020/12/14 03:10:56;;;;;;;47.90;21.93;;;5.80;99.90;;;;;;5034853;28;20451;-71
2020/12/14 03:13:22;;;;;;;44.43;20.90;;;5.80;99.90;;;;;;5034637;28;20526;-69
2020/12/14 03:15:49;;;;;;;51.97;22.80;;;5.90;99.90;;;;;;5034507;28;20801;-69
2020/12/14 03:18:15;;;;;;;40.60;19.90;;;5.90;99.90;;;;;;5034634;28;20456;-69
2020/12/14 03:20:41;;;;;;;58.60;22.03;;;6.00;99.90;;;;;;5034315;28;20517;-68
2020/12/14 03:23:07;;;;;;;64.57;23.50;;;6.00;99.90;;;;;;5034589;28;20444;-57
2020/12/14 03:25:33;;;;;;;51.90;22.70;;;6.10;99.90;;;;;;5034552;28;20512;-53
2020/12/14 03:28:00;;;;;;;41.67;21.00;;;6.10;99.90;;;;;;5034440;28;20452;-55
2020/12/14 03:30:27;;;;;;;53.53;22.83;;;6.10;99.90;;;;;;5034336;28;20456;-56
2020/12/14 03:32:54;;;;;;;50.40;22.17;;;6.20;99.90;;;;;;5034441;28;20456;-58
2020/12/14 03:35:20;;;;;;;43.40;20.67;;;6.20;99.90;;;;;;5034757;28;20463;-56
2020/12/14 03:37:46;;;;;;;55.57;23.70;;;6.20;99.90;;;;;;5034222;28;20468;-57
2020/12/14 03:40:12;;;;;;;63.13;28.17;;;6.30;99.90;;;;;;5034223;28;20456;-58
2020/12/14 03:42:38;;;;;;;72.17;28.13;;;6.30;99.90;;;;;;5034261;28;20479;-57
2020/12/14 03:45:04;;;;;;;69.17;26.90;;;6.30;99.90;;;;;;5034186;28;20475;-57
2020/12/14 03:47:30;;;;;;;78.27;30.17;;;6.30;99.90;;;;;;5034157;28;20483;-57
2020/12/14 03:49:57;;;;;;;82.70;29.80;;;6.30;99.90;;;;;;5034411;28;20456;-56
2020/12/14 03:52:24;;;;;;;72.93;30.50;;;6.30;99.90;;;;;;5034005;28;20460;-55
2020/12/14 03:54:50;;;;;;;85.83;33.83;;;6.30;99.90;;;;;;5033739;28;20972;-54
2020/12/14 03:57:16;;;;;;;73.63;30.40;;;6.30;99.90;;;;;;5033901;28;20460;-54
2020/12/14 03:59:42;;;;;;;69.93;28.97;;;6.30;99.90;;;;;;5034478;28;20484;-55
2020/12/14 04:02:08;;;;;;;79.03;30.87;;;6.40;99.90;;;;;;5035257;28;20514;-55
2020/12/14 04:04:35;;;;;;;70.77;28.93;;;6.40;99.90;;;;;;5037635;28;20512;-55
2020/12/14 04:07:02;;;;;;;72.23;27.60;;;6.40;99.90;;;;;;5038032;28;20455;-56
2020/12/14 04:09:28;;;;;;;58.30;25.90;;;6.40;99.90;;;;;;5038383;28;20522;-56
2020/12/14 04:11:54;;;;;;;63.47;26.63;;;6.40;99.90;;;;;;5038056;28;20908;-57
2020/12/14 04:14:22;;;;;;;68.20;27.40;;;6.40;99.90;;;;;;5037631;28;20455;-54
2020/12/14 04:16:52;;;;;;;61.83;25.83;;;6.40;99.90;;;;;;5037412;28;20452;-58
2020/12/14 04:19:22;;;;;;;72.83;27.60;;;6.50;99.90;;;;;;5037654;28;20460;-56
2020/12/14 04:21:49;;;;;;;57.13;26.57;;;6.40;99.90;;;;;;5037726;28;20826;-58
2020/12/14 04:24:16;;;;;;;57.07;26.00;;;6.40;99.90;;;;;;5037425;28;20567;-58
2020/12/14 04:26:42;;;;;;;57.10;25.00;;;6.40;99.90;;;;;;5037431;28;20451;-54
2020/12/14 04:29:08;;;;;;;55.63;25.10;;;6.40;99.90;;;;;;5039000;28;20448;-69
2020/12/14 04:31:34;;;;;;;61.37;24.07;;;6.40;99.90;;;;;;5039400;28;20499;-69
2020/12/14 04:34:01;;;;;;;48.50;24.07;;;6.30;99.90;;;;;;5038898;28;20554;-69
2020/12/14 04:36:28;;;;;;;46.50;24.20;;;6.20;99.90;;;;;;5037590;28;20460;-69
2020/12/14 04:38:54;;;;;;;48.83;21.97;;;6.10;99.90;;;;;;5036877;28;20925;-69
2020/12/14 04:41:22;;;;;;;54.07;25.20;;;6.00;99.90;;;;;;5037140;28;20514;-56
2020/12/14 04:43:50;;;;;;;42.10;22.30;;;5.90;99.90;;;;;;5036846;28;20534;-57
2020/12/14 04:46:18;;;;;;;48.87;22.63;;;5.90;99.90;;;;;;5037102;28;20468;-69
2020/12/14 04:48:44;;;;;;;49.17;22.93;;;5.80;99.90;;;;;;5037677;28;20487;-69
2020/12/14 04:51:11;;;;;;;57.67;22.77;;;5.70;99.90;;;;;;5037347;28;20529;-69
2020/12/14 04:53:40;;;;;;;44.30;21.90;;;5.80;99.90;;;;;;5037176;28;20462;-69
2020/12/14 04:56:08;;;;;;;41.63;23.10;;;5.80;99.90;;;;;;5036780;28;20456;-68
2020/12/14 04:58:36;;;;;;;42.70;23.00;;;5.80;99.90;;;;;;5037220;28;20466;-69
2020/12/14 05:01:03;;;;;;;46.77;23.17;;;5.70;99.90;;;;;;5036784;28;20539;-69
2020/12/14 05:03:30;;;;;;;39.43;19.67;;;5.80;99.90;;;;;;5036806;28;20484;-69
2020/12/14 05:05:56;;;;;;;33.90;20.13;;;5.80;99.90;;;;;;5036648;28;20452;-69
2020/12/14 05:08:26;;;;;;;45.00;20.90;;;5.80;99.90;;;;;;5036438;28;20456;-69
2020/12/14 05:10:52;;;;;;;37.17;19.57;;;5.80;99.90;;;;;;5036435;28;20466;-69
2020/12/14 05:13:18;;;;;;;35.47;19.90;;;5.80;99.90;;;;;;5036334;28;20459;-69
2020/12/14 05:15:45;;;;;;;41.47;21.57;;;5.90;99.90;;;;;;5035704;28;20452;-68
2020/12/14 05:18:13;;;;;;;37.30;20.93;;;5.90;99.90;;;;;;5036473;28;20488;-68
2020/12/14 05:20:41;;;;;;;40.40;22.37;;;6.00;99.90;;;;;;5036270;28;20732;-67
2020/12/14 05:23:09;;;;;;;40.57;19.90;;;5.90;99.90;;;;;;5036685;28;20456;-68
2020/12/14 05:25:35;;;;;;;35.13;21.53;;;5.90;99.90;;;;;;5036322;28;20487;-68
2020/12/14 05:28:04;;;;;;;42.53;20.97;;;5.90;99.90;;;;;;5036715;28;20452;-69
2020/12/14 05:30:37;;;;;;;37.63;20.00;;;5.80;99.90;;;;;;5036786;28;20460;-68
2020/12/14 05:33:05;;;;;;;36.40;19.50;;;5.80;99.90;;;;;;5036141;28;20444;-56
2020/12/14 05:35:36;;;;;;;36.90;18.77;;;5.80;99.90;;;;;;5036270;28;20548;-57
2020/12/14 05:38:16;;;;;;;35.40;20.17;;;5.80;99.90;;;;;;5036290;28;20748;-68
2020/12/14 05:40:43;;;;;;;35.43;19.43;;;5.80;99.90;;;;;;5036058;28;20487;-69
2020/12/14 05:43:11;;;;;;;36.33;21.07;;;5.80;99.90;;;;;;5036164;28;20837;-69
2020/12/14 05:45:37;;;;;;;35.00;19.47;;;5.80;99.90;;;;;;5036908;28;20845;-69
2020/12/14 05:48:04;;;;;;;37.67;19.53;;;5.80;99.90;;;;;;5036461;28;20522;-68
2020/12/14 05:50:30;;;;;;;35.47;19.90;;;5.80;99.90;;;;;;5036066;28;20467;-69
2020/12/14 05:53:02;;;;;;;33.80;20.00;;;5.70;99.90;;;;;;5035621;28;20457;-69
2020/12/14 05:55:29;;;;;;;34.80;19.60;;;5.80;99.90;;;;;;5037594;28;20432;-57
2020/12/14 05:58:01;;;;;;;38.40;20.10;;;5.80;99.90;;;;;;5035825;28;20447;-58
2020/12/14 06:00:28;;;;;;;33.43;19.60;;;5.80;99.90;;;;;;5035716;28;20794;-57
2020/12/14 06:02:55;;;;;;;37.00;21.40;;;5.80;99.90;;;;;;5035568;28;20510;-56
2020/12/14 06:05:23;;;;;;;38.33;20.00;;;5.80;99.90;;;;;;5035357;28;20507;-57
2020/12/14 06:07:59;;;;;;;38.87;20.90;;;5.70;99.90;;;;;;5037646;28;21000;-56
2020/12/14 06:10:31;;;;;;;41.00;20.37;;;5.80;99.90;;;;;;5038363;28;20424;-58
2020/12/14 06:13:06;;;;;;;33.60;20.40;;;5.80;99.90;;;;;;5038169;28;20452;-55
2020/12/14 06:15:33;;;;;;;33.60;19.30;;;5.90;99.90;;;;;;5040169;28;20920;-56
2020/12/14 06:18:01;;;;;;;42.27;19.47;;;5.90;99.90;;;;;;5036636;28;20455;-59
2020/12/14 06:20:28;;;;;;;40.00;19.80;;;5.90;99.90;;;;;;5037091;28;20456;-58
2020/12/14 06:23:02;;;;;;;38.67;20.73;;;6.00;99.90;;;;;;5035363;28;20537;-57
2020/12/14 06:25:29;;;;;;;39.43;21.00;;;5.90;99.90;;;;;;5035450;28;20464;-58
2020/12/14 06:27:55;;;;;;;40.43;21.57;;;5.90;99.90;;;;;;5035519;28;20902;-55
2020/12/14 06:30:30;;;;;;;34.37;20.47;;;5.90;99.90;;;;;;5035655;28;20474;-68
2020/12/14 06:32:59;;;;;;;38.33;19.80;;;5.90;99.90;;;;;;5035573;28;20972;-69
2020/12/14 06:38:36;;;;;;;39.80;21.47;;;6.00;99.90;;;;;;5113752;27;20855;-69
2020/12/14 06:41:03;;;;;;;38.10;20.20;;;6.00;99.90;;;;;;5113494;28;20773;-57
2020/12/14 06:43:31;;;;;;;41.80;21.40;;;6.10;99.90;;;;;;5113576;28;20445;-67
2020/12/14 06:45:58;;;;;;;37.07;21.97;;;6.10;99.90;;;;;;5113285;28;20505;-57
2020/12/14 06:48:39;;;;;;;39.33;18.87;;;6.00;99.90;;;;;;5116533;28;20448;-58
2020/12/14 06:51:05;;;;;;;40.97;20.70;;;6.00;99.90;;;;;;5113693;28;20443;-56
2020/12/14 06:53:44;;;;;;;39.30;21.27;;;5.90;99.90;;;;;;5112510;28;20455;-56
2020/12/14 06:56:11;;;;;;;45.93;22.80;;;6.00;99.90;;;;;;5113290;28;20483;-69
2020/12/14 06:58:41;;;;;;;40.63;21.63;;;5.90;99.90;;;;;;5112800;28;20778;-57
2020/12/14 07:01:32;;;;;;;39.43;20.93;;;5.90;99.90;;;;;;5112732;28;20529;-55
2020/12/14 07:03:59;;;;;;;38.87;20.13;;;5.90;99.90;;;;;;5112749;28;20461;-58
2020/12/14 07:06:26;;;;;;;38.97;20.07;;;5.90;99.90;;;;;;5112738;28;20445;-56
2020/12/14 07:08:53;;;;;;;37.50;20.37;;;5.90;99.90;;;;;;5112630;28;20448;-56
2020/12/14 07:11:20;;;;;;;33.70;19.53;;;5.90;99.90;;;;;;5112858;28;20453;-57
2020/12/14 07:13:48;;;;;;;39.13;20.53;;;5.90;99.90;;;;;;5112691;28;20445;-61
2020/12/14 07:16:15;;;;;;;35.40;21.67;;;5.90;99.90;;;;;;5114270;28;20553;-57
2020/12/14 07:18:44;;;;;;;42.03;20.20;;;5.80;99.90;;;;;;5112829;28;20453;-58
2020/12/14 07:21:14;;;;;;;35.67;19.03;;;5.80;99.90;;;;;;5112754;28;20456;-59
2020/12/14 07:23:43;;;;;;;32.97;18.90;;;5.80;99.90;;;;;;5113570;28;20866;-55
2020/12/14 07:26:11;;;;;;;28.90;18.17;;;5.80;99.90;;;;;;5113504;28;20506;-58
2020/12/14 07:28:40;;;;;;;31.77;18.33;;;5.80;99.90;;;;;;5113227;28;20449;-57
2020/12/14 07:31:08;;;;;;;32.17;19.37;;;5.80;99.90;;;;;;5115040;28;20515;-59
2020/12/14 07:33:35;;;;;;;35.70;18.70;;;5.80;99.90;;;;;;5112182;28;20513;-57
2020/12/14 07:36:03;;;;;;;34.30;19.80;;;5.80;99.90;;;;;;5113565;28;20460;-55
2020/12/14 07:38:29;;;;;;;31.97;18.40;;;5.80;99.90;;;;;;5113176;28;20436;-58
2020/12/14 07:41:04;;;;;;;36.47;18.97;;;5.80;99.90;;;;;;5112781;28;20509;-70
2020/12/14 07:43:31;;;;;;;38.80;20.00;;;5.80;99.90;;;;;;5112453;28;20432;-70
2020/12/14 07:45:57;;;;;;;26.87;18.13;;;5.80;99.90;;;;;;5114153;28;20456;-69
2020/12/14 07:48:23;;;;;;;32.77;20.03;;;5.80;99.90;;;;;;5105615;28;20448;-69
2020/12/14 07:50:49;;;;;;;36.00;19.83;;;5.70;99.90;;;;;;5097779;28;20529;-68
2020/12/14 07:53:16;;;;;;;33.57;19.80;;;5.70;99.90;;;;;;5098681;28;20910;-57
2020/12/14 07:55:42;;;;;;;32.33;19.57;;;5.70;99.90;;;;;;5098306;28;20462;-54
2020/12/14 07:58:08;;;;;;;31.20;18.03;;;5.60;99.90;;;;;;5098168;28;20538;-57
2020/12/14 08:00:35;;;;;;;33.13;20.13;;;5.50;99.90;;;;;;5097836;28;20828;-57
2020/12/14 08:03:02;;;;;;;34.60;19.97;;;5.60;99.90;;;;;;5097538;28;20927;-56
2020/12/14 08:05:28;;;;;;;29.57;18.10;;;5.60;99.90;;;;;;5098282;28;20453;-69
2020/12/14 08:08:00;;;;;;;30.20;19.20;;;5.60;99.90;;;;;;5097802;28;20453;-69
2020/12/14 08:10:30;;;;;;;34.63;17.90;;;5.70;99.90;;;;;;5097998;28;20429;-69
2020/12/14 08:12:57;;;;;;;26.37;17.27;;;5.80;99.90;;;;;;5097933;28;20450;-70
2020/12/14 08:15:24;;;;;;;33.73;19.40;;;5.80;99.90;;;;;;5097537;28;20487;-69
2020/12/14 08:17:52;;;;;;;33.73;18.60;;;5.80;99.90;;;;;;5097721;28;20473;-68
2020/12/14 08:20:26;;;;;;;30.17;18.87;;;5.60;99.90;;;;;;5098151;28;20449;-68
2020/12/14 08:22:53;;;;;;;32.97;18.53;;;5.70;99.90;;;;;;5097498;28;20444;-68
2020/12/14 08:25:21;;;;;;;27.93;18.73;;;5.70;99.90;;;;;;5097890;28;20449;-69
2020/12/14 08:27:51;;;;;;;32.00;18.10;;;5.70;99.90;;;;;;5097611;28;20507;-69
2020/12/14 08:30:19;;;;;;;32.30;19.23;;;5.70;99.90;;;;;;5097421;28;20449;-68
2020/12/14 08:33:02;;;;;;;38.60;22.20;;;5.80;99.90;;;;;;5096903;28;20453;-68
2020/12/14 08:35:29;;;;;;;28.03;17.87;;;5.80;99.90;;;;;;5097551;28;20445;-68
2020/12/14 08:38:02;;;;;;;26.83;17.93;;;5.80;99.90;;;;;;5096732;28;20485;-68
2020/12/14 08:40:28;;;;;;;28.73;18.77;;;5.90;99.90;;;;;;5097426;28;20495;-68
2020/12/14 08:43:07;;;;;;;27.47;18.03;;;5.90;99.90;;;;;;5096967;28;20453;-58
2020/12/14 08:45:33;;;;;;;28.23;18.40;;;6.00;99.90;;;;;;5097076;28;20498;-57
2020/12/14 08:48:00;;;;;;;30.73;17.10;;;6.00;99.90;;;;;;5097081;28;20831;-55
2020/12/14 08:50:26;;;;;;;27.60;17.13;;;6.10;99.90;;;;;;5096623;28;20536;-57
2020/12/14 08:53:00;;;;;;;25.80;17.30;;;6.00;99.90;;;;;;5096556;28;20450;-54
2020/12/14 08:55:37;;;;;;;29.00;17.43;;;6.10;99.90;;;;;;5096777;28;20443;-69
2020/12/14 08:58:03;;;;;;;28.33;17.50;;;6.10;99.90;;;;;;5096450;28;20465;-69
2020/12/14 09:00:29;;;;;;;24.10;16.17;;;6.10;99.90;;;;;;5095380;28;20511;-69
2020/12/14 09:03:00;;;;;;;21.67;15.73;;;6.20;99.90;;;;;;5097015;28;20522;-57
2020/12/14 09:05:26;;;;;;;25.50;17.63;;;6.30;99.90;;;;;;5096551;28;20437;-56
2020/12/14 09:07:52;;;;;;;25.00;17.50;;;6.30;99.90;;;;;;5097693;28;20446;-55
2020/12/14 09:10:22;;;;;;;26.10;15.73;;;6.30;99.90;;;;;;5096348;28;20776;-57
2020/12/14 09:12:49;;;;;;;24.20;15.50;;;6.20;99.90;;;;;;5095974;28;20437;-57
2020/12/14 09:15:15;;;;;;;25.90;16.97;;;6.30;99.90;;;;;;5096496;28;20453;-70
2020/12/14 09:17:42;;;;;;;23.93;16.37;;;6.20;99.90;;;;;;5097395;28;20477;-69
2020/12/14 09:20:09;;;;;;;23.50;16.17;;;6.30;99.90;;;;;;5096378;28;20523;-69
2020/12/14 09:22:36;;;;;;;26.50;15.63;;;6.40;99.90;;;;;;5096581;28;20540;-69
2020/12/14 09:25:03;;;;;;;23.00;15.37;;;6.40;99.90;;;;;;5096004;28;20824;-69
2020/12/14 09:27:30;;;;;;;27.60;16.60;;;6.40;99.90;;;;;;5096029;28;20445;-69
2020/12/14 09:29:56;;;;;;;21.13;15.47;;;6.50;99.90;;;;;;5095852;28;20843;-69
2020/12/14 09:32:22;;;;;;;21.23;14.87;;;6.50;99.90;;;;;;5095958;28;20773;-69
2020/12/14 09:34:48;;;;;;;19.83;13.97;;;6.50;99.90;;;;;;5095637;28;20446;-69
2020/12/14 09:37:14;;;;;;;19.13;13.87;;;6.50;99.90;;;;;;5095339;28;20542;-69
2020/12/14 09:39:41;;;;;;;20.67;14.10;;;6.50;99.90;;;;;;5095827;28;20510;-69
2020/12/14 09:42:07;;;;;;;20.23;14.63;;;6.50;99.90;;;;;;5095792;28;20586;-69
2020/12/14 09:44:35;;;;;;;24.60;14.70;;;6.50;99.90;;;;;;5095797;28;20457;-69
2020/12/14 09:47:04;;;;;;;19.40;14.30;;;6.60;99.90;;;;;;5096143;28;20567;-68
2020/12/14 09:49:30;;;;;;;20.70;13.90;;;6.60;99.90;;;;;;5096163;28;20552;-69
2020/12/14 09:51:56;;;;;;;23.47;15.00;;;6.60;99.90;;;;;;5095748;28;20518;-69
2020/12/14 09:54:22;;;;;;;20.53;14.20;;;6.60;99.90;;;;;;5096310;28;20453;-55
2020/12/14 09:56:49;;;;;;;19.77;13.33;;;6.60;99.90;;;;;;5097313;28;20473;-56
2020/12/14 09:59:15;;;;;;;18.77;13.67;;;6.70;99.90;;;;;;5097330;28;20514;-54
2020/12/14 10:01:42;;;;;;;22.30;14.30;;;6.60;99.90;;;;;;5097200;28;20532;-55
2020/12/14 10:04:08;;;;;;;19.40;12.50;;;6.70;99.90;;;;;;5096575;28;20507;-55
2020/12/14 10:06:34;;;;;;;19.47;11.47;;;6.80;99.90;;;;;;5095221;28;20491;-69
2020/12/14 10:09:00;;;;;;;18.27;12.27;;;6.90;99.90;;;;;;5096009;28;20457;-68
2020/12/14 10:11:28;;;;;;;21.10;13.03;;;7.00;99.90;;;;;;5095747;28;20523;-69
2020/12/14 10:13:54;;;;;;;20.20;12.50;;;7.10;99.90;;;;;;5096269;28;20458;-56
2020/12/14 10:16:21;;;;;;;23.00;13.10;;;7.20;99.90;;;;;;5095485;28;20453;-56
2020/12/14 10:18:48;;;;;;;18.17;12.97;;;7.20;99.90;;;;;;5095579;28;20515;-69
2020/12/14 10:21:15;;;;;;;21.60;12.67;;;7.40;99.90;;;;;;5095149;28;20449;-69
2020/12/14 10:23:41;;;;;;;22.20;12.27;;;7.40;99.90;;;;;;5095141;28;20522;-69
2020/12/14 10:26:09;;;;;;;18.87;12.67;;;7.50;99.90;;;;;;5096486;28;20471;-70
2020/12/14 10:28:36;;;;;;;18.67;12.50;;;7.50;99.90;;;;;;5096548;28;20449;-69
2020/12/14 10:31:02;;;;;;;20.23;12.93;;;7.50;99.90;;;;;;5098068;28;20938;-58
2020/12/14 10:33:30;;;;;;;17.83;12.50;;;7.50;99.90;;;;;;5098621;28;20783;-58
2020/12/14 10:35:57;;;;;;;15.70;11.27;;;7.50;99.90;;;;;;5097382;28;20545;-58
2020/12/14 10:38:23;;;;;;;22.97;13.40;;;7.40;99.90;;;;;;5096100;28;20461;-57
2020/12/14 10:40:49;;;;;;;35.47;14.23;;;7.40;99.90;;;;;;5098284;28;20973;-58
2020/12/14 10:43:15;;;;;;;20.90;12.00;;;7.50;99.90;;;;;;5095017;28;20449;-54
2020/12/14 10:45:43;;;;;;;18.20;11.73;;;7.50;99.90;;;;;;5095049;28;20930;-69
2020/12/14 10:48:09;;;;;;;20.80;13.60;;;7.50;99.90;;;;;;5094762;28;20782;-69
2020/12/14 10:50:38;;;;;;;19.03;13.33;;;7.30;99.90;;;;;;5094952;28;20787;-70
2020/12/14 10:53:05;;;;;;;18.23;10.70;;;7.30;99.90;;;;;;5095018;28;20453;-70
2020/12/14 10:55:31;;;;;;;19.63;11.73;;;7.30;99.90;;;;;;5094802;28;20449;-69
2020/12/14 10:57:59;;;;;;;16.70;11.80;;;7.20;99.90;;;;;;5097904;28;20549;-70
2020/12/14 11:00:25;;;;;;;22.03;12.73;;;7.20;99.90;;;;;;5095402;28;20454;-69
2020/12/14 11:02:51;;;;;;;19.40;12.77;;;7.20;99.90;;;;;;5094603;28;20516;-69
2020/12/14 11:05:17;;;;;;;22.47;12.90;;;7.20;99.90;;;;;;5095449;28;20483;-68
2020/12/14 11:07:44;;;;;;;19.47;12.40;;;7.20;99.90;;;;;;5094721;28;20445;-69
2020/12/14 11:10:11;;;;;;;19.13;11.70;;;7.20;99.90;;;;;;5094549;28;20523;-56
2020/12/14 11:12:38;;;;;;;20.23;13.00;;;7.30;99.90;;;;;;5094896;28;20770;-57
2020/12/14 11:15:07;;;;;;;25.97;12.40;;;7.30;99.90;;;;;;5095509;28;20511;-68
2020/12/14 11:17:34;;;;;;;19.30;12.30;;;7.30;99.90;;;;;;5095263;28;20485;-69
2020/12/14 11:20:00;;;;;;;17.77;12.13;;;7.40;99.90;;;;;;5095456;28;20560;-68
2020/12/14 11:22:26;;;;;;;19.50;12.90;;;7.50;99.90;;;;;;5094984;28;20464;-69
2020/12/14 11:24:52;;;;;;;16.70;11.50;;;7.60;99.90;;;;;;5099107;28;20457;-68
2020/12/14 11:27:22;;;;;;;17.97;11.10;;;7.80;99.90;;;;;;5099249;28;20449;-69
2020/12/14 11:29:48;;;;;;;15.63;11.40;;;7.80;99.90;;;;;;5106994;28;20453;-70
2020/12/14 11:32:14;;;;;;;17.03;10.83;;;7.90;99.90;;;;;;5098962;28;20487;-69
2020/12/14 11:34:40;;;;;;;18.60;12.97;;;8.00;99.90;;;;;;5098547;28;20858;-68
2020/12/14 11:37:07;;;;;;;14.23;9.60;;;8.10;99.90;;;;;;5097860;28;20802;-57
2020/12/14 11:39:33;;;;;;;14.70;10.47;;;8.10;99.90;;;;;;5099867;28;20573;-68
2020/12/14 11:41:59;;;;;;;15.37;10.10;;;8.10;99.90;;;;;;5098465;28;20450;-69
2020/12/14 11:44:26;;;;;;;12.67;9.23;;;8.20;99.90;;;;;;5098703;28;20774;-58
2020/12/14 11:46:52;;;;;;;14.00;9.67;;;8.30;99.90;;;;;;5100619;28;20441;-69
2020/12/14 11:49:19;;;;;;;14.83;10.07;;;8.40;99.90;;;;;;5098141;28;20789;-69
2020/12/14 11:51:46;;;;;;;18.63;11.27;;;8.40;99.90;;;;;;5097900;28;20453;-58
2020/12/14 11:54:12;;;;;;;13.77;8.50;;;8.50;99.90;;;;;;5097410;28;20483;-57
2020/12/14 11:56:38;;;;;;;11.40;8.50;;;8.60;99.90;;;;;;5098052;28;20457;-54
2020/12/14 11:59:04;;;;;;;12.83;9.00;;;8.70;99.90;;;;;;5097716;28;20454;-58
2020/12/14 12:01:31;;;;;;;14.13;10.23;;;8.90;99.90;;;;;;5098317;28;20450;-68
2020/12/14 12:03:57;;;;;;;14.50;9.23;;;9.10;99.90;;;;;;5097944;28;20522;-69
2020/12/14 12:06:27;;;;;;;14.63;9.83;;;9.50;99.90;;;;;;5097732;28;20449;-67
2020/12/14 12:08:53;;;;;;;12.87;8.60;;;10.10;99.90;;;;;;5097421;28;20951;-69
2020/12/14 12:11:20;;;;;;;14.40;9.07;;;10.70;99.90;;;;;;5098552;28;20601;-71
2020/12/14 12:13:46;;;;;;;12.77;8.17;;;11.20;99.90;;;;;;5097695;28;20449;-70
2020/12/14 12:16:12;;;;;;;12.23;8.20;;;11.40;99.90;;;;;;5097342;28;20454;-71
2020/12/14 12:18:39;;;;;;;12.30;9.03;;;11.20;99.90;;;;;;5097595;28;20481;-71
2020/12/14 12:21:08;;;;;;;11.80;8.43;;;10.70;99.90;;;;;;5097503;28;20500;-70
2020/12/14 12:23:34;;;;;;;14.83;8.37;;;10.50;99.90;;;;;;5097952;28;20525;-71
2020/12/14 12:26:00;;;;;;;9.37;7.40;;;10.30;99.90;;;;;;5097120;28;20484;-71
2020/12/14 12:28:26;;;;;;;11.63;7.93;;;9.80;99.90;;;;;;5097961;28;20449;-72
2020/12/14 12:30:52;;;;;;;12.70;8.13;;;9.60;99.90;;;;;;5098819;28;20449;-59
2020/12/14 12:33:19;;;;;;;13.07;7.93;;;9.30;99.90;;;;;;5098587;28;20483;-59
2020/12/14 12:35:46;;;;;;;12.07;8.60;;;9.20;99.90;;;;;;5103352;28;20453;-59
2020/12/14 12:38:12;;;;;;;10.53;8.40;;;9.00;99.90;;;;;;5101515;28;20485;-71
2020/12/14 12:40:38;;;;;;;14.37;9.20;;;9.00;99.90;;;;;;5102222;28;20995;-70